Time;durP1;ratioP1;P1;durP2;ratioP2;P2;SDS_P1;SDS_P2;PMS_P1;PMS_P2;Temp;Humidity;BMP_temperature;BMP_pressure;BME280_temperature;BME280_humidity;BME280_pressure;Samples;Min_cycle;Max_cycle;Signal;HPM_P1;HPM_P2
2022/04/01 00:00:41;;;;;;;;;0.00;0.00;;;;;;;;5053046;28;45498;-71
2022/04/01 00:03:06;;;;;;;;;0.75;0.75;;;;;;;;5051102;28;45554;-72
2022/04/01 00:05:35;;;;;;;;;0.00;0.00;;;;;;;;5054274;28;45481;-71
2022/04/01 00:08:01;;;;;;;;;0.00;0.00;;;;;;;;5051825;28;46578;-71
2022/04/01 00:10:27;;;;;;;;;0.00;0.00;;;;;;;;5055166;28;45900;-71
2022/04/01 00:12:52;;;;;;;;;0.00;0.00;;;;;;;;5051415;28;45365;-71
2022/04/01 00:15:18;;;;;;;;;0.50;0.50;;;;;;;;5048992;28;45450;-72
2022/04/01 00:17:43;;;;;;;;;0.50;0.00;;;;;;;;5049183;28;46146;-71
2022/04/01 00:20:10;;;;;;;;;2.25;0.50;;;;;;;;5054456;28;45483;-69
2022/04/01 00:22:35;;;;;;;;;0.25;0.00;;;;;;;;5050069;28;45449;-71
2022/04/01 00:25:01;;;;;;;;;1.00;0.00;;;;;;;;5052149;28;45480;-71
2022/04/01 00:27:26;;;;;;;;;0.00;0.00;;;;;;;;5050795;28;46108;-70
2022/04/01 00:29:51;;;;;;;;;0.50;0.50;;;;;;;;5048552;28;45290;-70
2022/04/01 00:32:16;;;;;;;;;0.00;0.00;;;;;;;;5051183;28;45611;-71
2022/04/01 00:34:42;;;;;;;;;0.25;0.25;;;;;;;;5054781;28;45595;-72
2022/04/01 00:37:08;;;;;;;;;1.00;0.00;;;;;;;;5051366;28;46431;-71
2022/04/01 00:39:33;;;;;;;;;0.00;0.00;;;;;;;;5051816;28;45492;-70
2022/04/01 00:42:00;;;;;;;;;3.00;1.00;;;;;;;;5052183;28;45406;-71
2022/04/01 00:44:27;;;;;;;;;1.00;0.00;;;;;;;;5050422;28;45362;-72
2022/04/01 00:46:54;;;;;;;;;1.00;1.00;;;;;;;;5049775;28;46298;-71
2022/04/01 00:49:20;;;;;;;;;1.00;0.00;;;;;;;;5050604;28;45606;-71
2022/04/01 00:51:47;;;;;;;;;1.00;1.00;;;;;;;;5050665;28;45474;-70
2022/04/01 00:54:13;;;;;;;;;2.25;0.75;;;;;;;;5050212;28;45543;-71
2022/04/01 00:56:38;;;;;;;;;0.00;0.00;;;;;;;;5051230;28;45518;-71
2022/04/01 00:59:04;;;;;;;;;1.00;1.00;;;;;;;;5051851;28;45512;-69
2022/04/01 01:01:31;;;;;;;;;1.00;1.00;;;;;;;;5050285;28;45444;-71
2022/04/01 01:03:57;;;;;;;;;0.00;0.00;;;;;;;;5050853;28;45544;-71
2022/04/01 01:06:22;;;;;;;;;0.00;0.00;;;;;;;;5053730;28;45467;-70
2022/04/01 01:08:48;;;;;;;;;0.75;0.75;;;;;;;;5050264;28;45420;-71
2022/04/01 01:11:14;;;;;;;;;0.25;0.25;;;;;;;;5051633;28;45981;-72
2022/04/01 01:13:39;;;;;;;;;0.50;0.50;;;;;;;;5047509;28;46328;-69
2022/04/01 01:16:05;;;;;;;;;0.00;0.00;;;;;;;;5049414;28;45948;-71
2022/04/01 01:18:30;;;;;;;;;0.25;0.00;;;;;;;;5047912;28;45837;-69
2022/04/01 01:20:55;;;;;;;;;0.00;0.00;;;;;;;;5052079;28;45644;-71
2022/04/01 01:23:30;;;;;;;;;1.50;1.00;;;;;;;;5050455;28;45424;-71
2022/04/01 01:25:56;;;;;;;;;1.00;1.00;;;;;;;;5048496;28;45665;-70
2022/04/01 01:28:22;;;;;;;;;1.00;0.00;;;;;;;;5047238;28;45693;-71
2022/04/01 01:30:47;;;;;;;;;1.00;0.00;;;;;;;;5049966;28;45658;-70
2022/04/01 01:33:14;;;;;;;;;2.00;1.00;;;;;;;;5048243;28;45690;-71
2022/04/01 01:35:39;;;;;;;;;1.50;1.00;;;;;;;;5050012;28;45949;-71
2022/04/01 01:38:05;;;;;;;;;1.00;1.00;;;;;;;;5052245;28;45465;-72
2022/04/01 01:40:30;;;;;;;;;2.00;1.25;;;;;;;;5053330;28;45496;-71
2022/04/01 01:43:00;;;;;;;;;1.00;1.00;;;;;;;;5050963;28;45452;-71
2022/04/01 01:45:29;;;;;;;;;1.25;1.00;;;;;;;;5053097;28;46196;-71
2022/04/01 01:47:57;;;;;;;;;0.50;0.50;;;;;;;;5046996;28;45548;-71
2022/04/01 01:55:53;;;;;;;;;0.00;0.00;;;;;;;;5050683;28;45742;-71
2022/04/01 01:58:18;;;;;;;;;1.75;0.75;;;;;;;;5050072;28;45453;-71
2022/04/01 02:00:45;;;;;;;;;1.00;1.00;;;;;;;;5050413;28;45544;-72
2022/04/01 02:03:11;;;;;;;;;0.00;0.00;;;;;;;;5045825;28;45669;-71
2022/04/01 02:05:36;;;;;;;;;0.50;0.50;;;;;;;;5051792;28;45602;-72
2022/04/01 02:08:02;;;;;;;;;0.50;0.00;;;;;;;;5051992;28;45475;-72
2022/04/01 02:10:28;;;;;;;;;1.00;0.50;;;;;;;;5039072;28;45471;-72
2022/04/01 02:12:53;;;;;;;;;0.75;0.00;;;;;;;;5040382;28;45478;-72
2022/04/01 02:15:20;;;;;;;;;0.00;0.00;;;;;;;;5043475;28;46452;-71
2022/04/01 02:17:46;;;;;;;;;1.00;0.00;;;;;;;;5040372;28;45414;-72
2022/04/01 02:20:11;;;;;;;;;1.00;1.00;;;;;;;;5039320;28;45309;-70
2022/04/01 02:22:39;;;;;;;;;1.00;1.00;;;;;;;;5041416;28;45311;-70
2022/04/01 02:25:07;;;;;;;;;0.25;0.00;;;;;;;;5038326;28;45384;-71
2022/04/01 02:27:33;;;;;;;;;0.00;0.00;;;;;;;;5039179;28;45390;-70
2022/04/01 02:29:58;;;;;;;;;1.25;1.00;;;;;;;;5039899;28;45417;-70
2022/04/01 02:32:23;;;;;;;;;0.75;0.00;;;;;;;;5038970;28;45581;-71
2022/04/01 02:34:49;;;;;;;;;0.00;0.00;;;;;;;;5038715;28;46248;-71
2022/04/01 02:37:15;;;;;;;;;0.25;0.25;;;;;;;;5039478;28;45456;-70
2022/04/01 02:39:40;;;;;;;;;0.00;0.00;;;;;;;;5038033;28;45381;-71
2022/04/01 02:42:05;;;;;;;;;1.00;0.00;;;;;;;;5040887;28;45323;-71
2022/04/01 02:44:31;;;;;;;;;0.50;0.00;;;;;;;;5056043;28;46487;-72
2022/04/01 02:46:57;;;;;;;;;0.25;0.25;;;;;;;;5056973;28;45211;-71
2022/04/01 02:49:23;;;;;;;;;0.00;0.00;;;;;;;;5057811;28;45426;-71
2022/04/01 02:51:49;;;;;;;;;1.00;1.00;;;;;;;;5058696;28;46043;-71
2022/04/01 02:54:14;;;;;;;;;0.50;0.50;;;;;;;;5056224;28;46243;-70
2022/04/01 02:56:40;;;;;;;;;1.00;1.00;;;;;;;;5057837;28;45457;-70
2022/04/01 02:59:07;;;;;;;;;5.00;0.75;;;;;;;;5057862;28;45496;-71
2022/04/01 03:01:33;;;;;;;;;0.00;0.00;;;;;;;;5056742;28;45588;-71
2022/04/01 03:03:58;;;;;;;;;1.00;1.00;;;;;;;;5057366;28;46203;-71
2022/04/01 03:06:24;;;;;;;;;1.00;0.00;;;;;;;;5057263;28;45484;-71
2022/04/01 03:08:49;;;;;;;;;1.25;1.00;;;;;;;;5057991;28;45395;-71
2022/04/01 03:11:15;;;;;;;;;1.75;1.00;;;;;;;;5057832;28;45313;-72
2022/04/01 03:13:41;;;;;;;;;5.00;1.00;;;;;;;;5054797;28;46523;-71
2022/04/01 03:16:06;;;;;;;;;1.50;0.50;;;;;;;;5036792;28;45411;-71
2022/04/01 03:18:32;;;;;;;;;1.00;1.00;;;;;;;;5049571;28;45330;-71
2022/04/01 03:20:57;;;;;;;;;1.00;1.00;;;;;;;;5044552;28;45310;-70
2022/04/01 03:23:22;;;;;;;;;1.00;1.00;;;;;;;;5041898;28;45540;-72
2022/04/01 03:25:49;;;;;;;;;2.00;1.00;;;;;;;;5053099;28;45930;-71
2022/04/01 03:28:14;;;;;;;;;0.00;0.00;;;;;;;;5050874;28;45537;-71
2022/04/01 03:30:39;;;;;;;;;2.00;1.00;;;;;;;;5036070;28;45469;-70
2022/04/01 03:33:05;;;;;;;;;1.25;1.00;;;;;;;;5035832;28;46436;-71
2022/04/01 03:35:32;;;;;;;;;1.00;0.75;;;;;;;;5043784;28;45343;-71
2022/04/01 03:37:59;;;;;;;;;1.00;1.00;;;;;;;;5036748;28;46644;-71
2022/04/01 03:40:28;;;;;;;;;1.00;1.00;;;;;;;;5043334;28;45529;-71
2022/04/01 03:42:55;;;;;;;;;1.00;1.00;;;;;;;;5040692;28;46533;-72
2022/04/01 03:45:22;;;;;;;;;2.75;2.00;;;;;;;;5037015;28;45569;-71
2022/04/01 03:47:52;;;;;;;;;2.50;1.00;;;;;;;;5036989;28;45489;-71
2022/04/01 03:50:19;;;;;;;;;1.50;1.25;;;;;;;;5036258;28;45521;-71
2022/04/01 03:52:45;;;;;;;;;2.00;1.75;;;;;;;;5035428;28;47074;-71
2022/04/01 03:55:11;;;;;;;;;3.00;3.00;;;;;;;;5036461;28;45395;-71
2022/04/01 03:57:38;;;;;;;;;5.25;3.00;;;;;;;;5055155;28;45516;-70
2022/04/01 04:00:10;;;;;;;;;1.75;1.00;;;;;;;;5055435;28;45599;-71
2022/04/01 04:02:35;;;;;;;;;4.00;3.00;;;;;;;;5056423;28;45480;-71
2022/04/01 04:05:02;;;;;;;;;2.00;2.00;;;;;;;;5055149;28;45493;-71
2022/04/01 04:07:29;;;;;;;;;2.00;2.00;;;;;;;;5055963;28;46233;-72
2022/04/01 04:09:56;;;;;;;;;3.00;2.00;;;;;;;;5056518;28;45418;-71
2022/04/01 04:12:22;;;;;;;;;2.00;2.00;;;;;;;;5051802;28;46684;-71
2022/04/01 04:14:51;;;;;;;;;5.25;2.25;;;;;;;;5036456;28;45559;-71
2022/04/01 04:17:22;;;;;;;;;2.75;2.00;;;;;;;;5036692;28;45390;-70
2022/04/01 04:19:53;;;;;;;;;4.00;2.00;;;;;;;;5036771;28;45476;-71
2022/04/01 04:22:39;;;;;;;;;1.75;1.75;;;;;;;;5036332;28;45577;-71
2022/04/01 04:25:10;;;;;;;;;4.50;2.00;;;;;;;;5014740;28;45689;-72
2022/04/01 04:27:36;;;;;;;;;2.00;2.00;;;;;;;;5035269;28;45391;-71
2022/04/01 04:30:08;;;;;;;;;2.00;2.00;;;;;;;;5035750;28;45385;-71
2022/04/01 04:32:34;;;;;;;;;3.00;2.75;;;;;;;;5036400;28;45504;-71
2022/04/01 04:35:04;;;;;;;;;1.75;1.50;;;;;;;;5036366;28;45489;-71
2022/04/01 04:37:31;;;;;;;;;2.75;2.00;;;;;;;;5034642;28;45508;-71
2022/04/01 04:39:59;;;;;;;;;3.00;3.00;;;;;;;;5036326;28;45513;-72
2022/04/01 04:42:27;;;;;;;;;2.00;2.00;;;;;;;;5037009;28;46058;-71
2022/04/01 04:44:53;;;;;;;;;3.00;2.75;;;;;;;;5051039;28;45523;-71
2022/04/01 04:47:25;;;;;;;;;3.00;2.25;;;;;;;;5040019;28;45313;-71
2022/04/01 04:49:52;;;;;;;;;29.25;26.00;;;;;;;;5040363;28;45611;-70
2022/04/01 04:52:19;;;;;;;;;1.50;1.50;;;;;;;;5038010;28;45509;-70
2022/04/01 04:54:44;;;;;;;;;2.00;1.00;;;;;;;;5045581;28;45434;-71
2022/04/01 04:57:10;;;;;;;;;2.50;2.50;;;;;;;;5039455;28;45481;-71
2022/04/01 04:59:35;;;;;;;;;2.00;2.00;;;;;;;;5039200;28;45359;-71
2022/04/01 05:02:08;;;;;;;;;2.00;2.00;;;;;;;;5053934;28;46142;-69
2022/04/01 05:04:42;;;;;;;;;2.00;2.00;;;;;;;;5050089;28;45329;-71
2022/04/01 05:07:20;;;;;;;;;3.00;2.25;;;;;;;;5057346;28;45616;-70
2022/04/01 05:09:52;;;;;;;;;2.00;2.00;;;;;;;;5057436;28;45358;-70
2022/04/01 05:12:24;;;;;;;;;2.00;2.00;;;;;;;;5055700;28;45433;-71
2022/04/01 05:14:58;;;;;;;;;1.00;1.00;;;;;;;;5057110;28;45354;-70
2022/04/01 05:17:35;;;;;;;;;2.50;2.50;;;;;;;;5054538;28;45579;-70
2022/04/01 05:20:02;;;;;;;;;2.00;2.00;;;;;;;;5052633;28;45538;-71
2022/04/01 05:22:42;;;;;;;;;3.00;2.00;;;;;;;;5053805;28;45428;-71
2022/04/01 05:25:10;;;;;;;;;1.00;1.00;;;;;;;;5055679;28;45579;-70
2022/04/01 05:27:40;;;;;;;;;2.00;2.00;;;;;;;;5053518;28;45379;-71
2022/04/01 05:30:16;;;;;;;;;2.50;2.50;;;;;;;;5056565;28;45500;-71
2022/04/01 05:32:59;;;;;;;;;3.00;2.00;;;;;;;;5055459;28;45539;-71
2022/04/01 05:35:29;;;;;;;;;1.75;1.75;;;;;;;;5051904;28;45502;-70
2022/04/01 05:37:56;;;;;;;;;4.00;3.00;;;;;;;;5053580;28;45367;-70
2022/04/01 05:40:21;;;;;;;;;3.00;2.00;;;;;;;;5054103;28;45365;-70
2022/04/01 05:42:47;;;;;;;;;2.00;1.00;;;;;;;;5054331;28;45454;-70
2022/04/01 05:45:13;;;;;;;;;2.50;2.00;;;;;;;;5053358;28;45488;-69
2022/04/01 05:47:38;;;;;;;;;3.00;2.00;;;;;;;;5055849;28;45541;-71
2022/04/01 05:50:06;;;;;;;;;12.25;8.50;;;;;;;;5054606;28;46137;-72
2022/04/01 05:52:34;;;;;;;;;53.50;43.75;;;;;;;;5054223;28;45619;-72
2022/04/01 05:55:00;;;;;;;;;13.50;10.50;;;;;;;;5052304;28;45429;-72
2022/04/01 05:57:26;;;;;;;;;75.25;56.50;;;;;;;;5055514;28;45470;-72
2022/04/01 05:59:51;;;;;;;;;6.00;5.00;;;;;;;;5055823;28;45322;-72
2022/04/01 06:02:26;;;;;;;;;4.00;3.00;;;;;;;;5056594;28;46512;-72
2022/04/01 06:04:57;;;;;;;;;2.00;2.00;;;;;;;;5056773;28;45462;-71
2022/04/01 06:07:26;;;;;;;;;1.00;0.00;;;;;;;;5054656;28;45369;-72
2022/04/01 06:10:00;;;;;;;;;2.75;2.00;;;;;;;;5056725;28;45427;-71
2022/04/01 06:12:29;;;;;;;;;22.00;19.75;;;;;;;;5054737;28;46087;-72
2022/04/01 06:15:15;;;;;;;;;42.25;37.00;;;;;;;;5054280;28;45413;-72
2022/04/01 06:17:46;;;;;;;;;11.50;9.75;;;;;;;;5048328;28;45311;-72
2022/04/01 06:20:13;;;;;;;;;32.00;24.50;;;;;;;;5053805;28;45482;-72
2022/04/01 06:22:46;;;;;;;;;1.00;1.00;;;;;;;;5054535;28;46200;-72
2022/04/01 06:25:18;;;;;;;;;3.00;2.00;;;;;;;;5054023;28;45790;-72
2022/04/01 06:27:47;;;;;;;;;3.50;2.75;;;;;;;;5052492;28;45556;-72
2022/04/01 06:30:14;;;;;;;;;2.00;2.00;;;;;;;;5053761;28;45465;-71
2022/04/01 06:32:56;;;;;;;;;6.25;5.25;;;;;;;;5052695;28;45521;-71
2022/04/01 06:35:35;;;;;;;;;1.75;1.00;;;;;;;;5052148;28;45416;-72
2022/04/01 06:38:07;;;;;;;;;7.25;6.75;;;;;;;;5049819;28;45438;-72
2022/04/01 06:40:45;;;;;;;;;29.25;23.00;;;;;;;;5054062;28;45575;-72
2022/04/01 06:43:10;;;;;;;;;109.75;75.50;;;;;;;;5050606;28;46754;-72
2022/04/01 06:45:36;;;;;;;;;24.50;23.00;;;;;;;;5051486;28;45335;-72
2022/04/01 06:48:01;;;;;;;;;37.50;34.25;;;;;;;;5053386;28;45972;-71
2022/04/01 06:50:26;;;;;;;;;20.00;20.00;;;;;;;;5053897;28;45718;-72
2022/04/01 06:52:52;;;;;;;;;12.25;11.50;;;;;;;;5038980;28;45490;-72
2022/04/01 06:55:17;;;;;;;;;28.75;24.00;;;;;;;;5036648;28;45605;-72
2022/04/01 06:57:43;;;;;;;;;23.75;22.00;;;;;;;;5052634;28;45928;-72
2022/04/01 07:00:11;;;;;;;;;19.75;19.50;;;;;;;;5051856;28;45385;-69
2022/04/01 07:02:37;;;;;;;;;13.50;13.50;;;;;;;;5049739;28;46296;-69
2022/04/01 07:05:03;;;;;;;;;2.50;2.25;;;;;;;;5052791;28;45647;-72
2022/04/01 07:07:28;;;;;;;;;3.00;3.00;;;;;;;;5053762;28;45477;-72
2022/04/01 07:09:53;;;;;;;;;3.50;2.00;;;;;;;;5053543;28;45404;-72
2022/04/01 07:12:19;;;;;;;;;13.75;11.00;;;;;;;;5053734;28;45763;-72
2022/04/01 07:14:44;;;;;;;;;11.00;8.25;;;;;;;;5054825;28;45403;-72
2022/04/01 07:17:10;;;;;;;;;9.00;7.50;;;;;;;;5053122;28;45427;-71
2022/04/01 07:19:35;;;;;;;;;18.25;18.00;;;;;;;;5050220;28;45473;-72
2022/04/01 07:22:00;;;;;;;;;17.25;14.75;;;;;;;;5051061;28;47504;-72
2022/04/01 07:24:26;;;;;;;;;23.75;21.75;;;;;;;;5053442;28;45908;-71
2022/04/01 07:26:51;;;;;;;;;19.25;16.25;;;;;;;;5054205;28;45559;-71
2022/04/01 07:29:17;;;;;;;;;57.50;43.00;;;;;;;;5052748;28;45511;-73
2022/04/01 07:34:31;;;;;;;;;13.00;12.00;;;;;;;;5052808;28;45504;-73
2022/04/01 07:36:56;;;;;;;;;6.25;5.50;;;;;;;;5053211;28;45398;-71
2022/04/01 07:39:22;;;;;;;;;5.50;5.50;;;;;;;;5053087;28;45378;-73
2022/04/01 07:41:47;;;;;;;;;6.00;5.00;;;;;;;;5053165;28;45528;-73
2022/04/01 07:44:12;;;;;;;;;3.50;3.00;;;;;;;;5048087;28;45680;-72
2022/04/01 07:46:38;;;;;;;;;6.00;5.25;;;;;;;;5054262;28;45541;-72
2022/04/01 07:49:03;;;;;;;;;1.00;1.00;;;;;;;;5049364;28;45621;-72
2022/04/01 07:51:28;;;;;;;;;3.00;1.50;;;;;;;;5053019;28;45548;-72
2022/04/01 07:53:54;;;;;;;;;2.00;2.00;;;;;;;;5053426;28;45528;-72
2022/04/01 07:56:19;;;;;;;;;2.00;1.00;;;;;;;;5052204;28;45437;-71
2022/04/01 07:58:44;;;;;;;;;8.50;7.50;;;;;;;;5050921;28;45412;-72
2022/04/01 08:01:10;;;;;;;;;14.50;12.50;;;;;;;;5054132;28;45365;-74
2022/04/01 08:03:35;;;;;;;;;58.50;44.75;;;;;;;;5051898;28;45330;-74
2022/04/01 08:06:00;;;;;;;;;7.00;6.25;;;;;;;;5050793;28;45361;-72
2022/04/01 08:08:26;;;;;;;;;7.50;5.50;;;;;;;;5052595;28;45383;-74
2022/04/01 08:10:54;;;;;;;;;5.50;3.00;;;;;;;;5051951;28;45593;-72
2022/04/01 08:13:19;;;;;;;;;4.25;4.00;;;;;;;;5050216;28;45484;-74
2022/04/01 08:15:46;;;;;;;;;26.75;24.50;;;;;;;;5051503;28;45496;-72
2022/04/01 08:18:11;;;;;;;;;10.00;9.00;;;;;;;;5050144;28;45471;-72
2022/04/01 08:20:37;;;;;;;;;6.75;6.75;;;;;;;;5053046;28;45463;-73
2022/04/01 08:23:02;;;;;;;;;6.50;6.00;;;;;;;;5054207;28;45544;-70
2022/04/01 08:25:28;;;;;;;;;6.00;6.00;;;;;;;;5056596;28;45743;-71
2022/04/01 08:27:56;;;;;;;;;9.00;8.00;;;;;;;;5055514;28;45525;-72
2022/04/01 08:30:22;;;;;;;;;3.50;3.00;;;;;;;;5053524;28;48156;-72
2022/04/01 08:32:47;;;;;;;;;10.25;10.00;;;;;;;;5055625;28;45524;-71
2022/04/01 08:35:13;;;;;;;;;4.25;4.00;;;;;;;;5056820;28;45527;-70
2022/04/01 08:37:39;;;;;;;;;4.00;3.50;;;;;;;;5055673;28;46208;-70
2022/04/01 08:40:05;;;;;;;;;4.00;3.25;;;;;;;;5055104;28;46229;-71
2022/04/01 08:42:32;;;;;;;;;10.00;8.50;;;;;;;;5053713;28;45635;-72
2022/04/01 08:44:58;;;;;;;;;5.25;4.75;;;;;;;;5048623;28;46644;-70
2022/04/01 08:47:23;;;;;;;;;3.00;2.00;;;;;;;;5041688;28;45473;-70
2022/04/01 08:49:49;;;;;;;;;31.50;30.25;;;;;;;;5048571;28;45457;-69
2022/04/01 08:52:14;;;;;;;;;1.00;1.00;;;;;;;;5040793;28;44955;-70
2022/04/01 08:54:40;;;;;;;;;2.75;2.00;;;;;;;;5058596;28;45427;-70
2022/04/01 08:57:08;;;;;;;;;37.75;29.50;;;;;;;;5055558;28;45564;-75
2022/04/01 08:59:37;;;;;;;;;12.75;12.50;;;;;;;;5053056;28;46141;-73
2022/04/01 09:02:07;;;;;;;;;8.75;8.25;;;;;;;;5052709;28;45508;-70
2022/04/01 09:04:32;;;;;;;;;35.00;30.75;;;;;;;;5053284;28;45704;-73
2022/04/01 09:07:08;;;;;;;;;13.50;12.00;;;;;;;;5054768;28;45815;-70
2022/04/01 09:09:34;;;;;;;;;11.00;10.00;;;;;;;;5053780;28;45507;-74
2022/04/01 09:12:05;;;;;;;;;6.00;5.00;;;;;;;;5053751;28;45573;-73
2022/04/01 09:14:31;;;;;;;;;11.00;10.50;;;;;;;;5053464;28;45449;-76
2022/04/01 09:16:56;;;;;;;;;1.25;1.25;;;;;;;;5054607;28;45687;-76
2022/04/01 09:19:28;;;;;;;;;12.00;10.75;;;;;;;;5051594;28;45631;-73
2022/04/01 09:21:54;;;;;;;;;6.50;5.00;;;;;;;;5040913;28;45371;-75
2022/04/01 09:24:19;;;;;;;;;3.00;2.00;;;;;;;;5037600;28;45589;-74
2022/04/01 09:26:45;;;;;;;;;2.25;2.00;;;;;;;;5037741;28;45442;-76
2022/04/01 09:29:11;;;;;;;;;7.00;7.00;;;;;;;;5050591;28;46564;-74
2022/04/01 09:31:40;;;;;;;;;1.50;1.00;;;;;;;;5035536;28;45730;-74
2022/04/01 09:34:09;;;;;;;;;11.25;11.25;;;;;;;;5045376;28;45591;-73
2022/04/01 09:36:38;;;;;;;;;5.25;5.00;;;;;;;;5052068;28;45771;-75
2022/04/01 09:39:06;;;;;;;;;20.00;17.75;;;;;;;;5039410;28;45629;-74
2022/04/01 09:41:36;;;;;;;;;11.50;10.00;;;;;;;;5036650;28;45556;-74
2022/04/01 09:44:03;;;;;;;;;7.75;6.00;;;;;;;;5035012;28;45445;-73
2022/04/01 09:46:29;;;;;;;;;33.75;32.75;;;;;;;;5051918;28;45560;-81
2022/04/01 09:48:58;;;;;;;;;64.25;50.00;;;;;;;;5053813;28;46185;-78
2022/04/01 09:51:28;;;;;;;;;72.50;57.00;;;;;;;;5053543;28;45423;-82
2022/04/01 09:53:55;;;;;;;;;30.25;27.25;;;;;;;;5056191;28;45443;-80
2022/04/01 09:56:40;;;;;;;;;26.75;23.50;;;;;;;;5052482;28;45814;-75
2022/04/01 09:59:06;;;;;;;;;16.00;14.50;;;;;;;;5051974;28;45578;-73
2022/04/01 10:01:35;;;;;;;;;11.00;11.00;;;;;;;;5044511;28;45383;-72
2022/04/01 10:04:02;;;;;;;;;7.25;7.25;;;;;;;;5056399;28;45382;-72
2022/04/01 10:06:28;;;;;;;;;17.00;16.00;;;;;;;;5040392;28;45493;-79
2022/04/01 10:08:54;;;;;;;;;12.00;12.00;;;;;;;;5040171;28;45432;-75
2022/04/01 10:11:22;;;;;;;;;13.00;13.00;;;;;;;;5047432;28;45442;-73
2022/04/01 10:13:48;;;;;;;;;14.00;13.75;;;;;;;;5034722;28;45606;-79
2022/04/01 10:16:13;;;;;;;;;22.25;19.75;;;;;;;;5052342;28;45484;-74
2022/04/01 10:18:40;;;;;;;;;15.50;12.75;;;;;;;;5040814;28;45465;-71
2022/04/01 10:21:06;;;;;;;;;3.75;2.75;;;;;;;;5043518;28;45309;-72
2022/04/01 10:23:34;;;;;;;;;8.00;7.00;;;;;;;;5056264;28;45425;-72
2022/04/01 10:26:01;;;;;;;;;15.75;14.00;;;;;;;;5039636;28;45442;-72
2022/04/01 10:28:27;;;;;;;;;6.00;6.00;;;;;;;;5040514;28;46195;-72
2022/04/01 10:30:53;;;;;;;;;12.75;12.25;;;;;;;;5045646;28;45400;-72
2022/04/01 10:33:23;;;;;;;;;7.00;7.00;;;;;;;;5049087;28;45559;-72
2022/04/01 10:35:49;;;;;;;;;11.50;11.50;;;;;;;;5036894;28;45571;-72
2022/04/01 10:38:17;;;;;;;;;9.67;9.00;;;;;;;;5034930;28;46992;-72
2022/04/01 10:40:45;;;;;;;;;3.00;3.00;;;;;;;;5044888;28;45515;-72
2022/04/01 10:43:12;;;;;;;;;8.67;8.67;;;;;;;;5050894;28;45505;-70
2022/04/01 10:45:38;;;;;;;;;14.33;13.00;;;;;;;;5051336;28;45414;-74
2022/04/01 10:54:04;;;;;;;;;24.25;20.75;;;;;;;;5035776;28;45470;-73
2022/04/01 10:56:30;;;;;;;;;24.00;24.00;;;;;;;;5036736;28;45394;-75
2022/04/01 10:59:14;;;;;;;;;8.00;8.00;;;;;;;;5036468;28;45634;-72
2022/04/01 11:01:43;;;;;;;;;12.67;10.67;;;;;;;;5055230;28;45554;-73
2022/04/01 11:04:12;;;;;;;;;13.33;12.67;;;;;;;;5046994;28;45347;-74
2022/04/01 11:06:52;;;;;;;;;9.00;6.67;;;;;;;;5051619;28;45592;-72
2022/04/01 11:09:36;;;;;;;;;3.00;3.00;;;;;;;;5050635;28;45527;-71
2022/04/01 11:12:21;;;;;;;;;6.67;6.67;;;;;;;;5054542;28;45796;-73
2022/04/01 11:15:16;;;;;;;;;6.00;5.00;;;;;;;;5055906;28;45500;-72
2022/04/01 11:17:45;;;;;;;;;3.00;2.33;;;;;;;;5057399;28;45420;-73
2022/04/01 11:20:12;;;;;;;;;9.67;8.67;;;;;;;;5055422;28;45413;-73
2022/04/01 11:22:42;;;;;;;;;9.67;9.67;;;;;;;;5057278;28;45425;-74
2022/04/01 11:25:08;;;;;;;;;5.00;4.00;;;;;;;;5057241;28;45249;-72
2022/04/01 11:27:34;;;;;;;;;4.33;4.00;;;;;;;;5056125;28;45508;-73
2022/04/01 11:30:08;;;;;;;;;1.33;1.33;;;;;;;;5056968;28;45457;-73
2022/04/01 11:32:35;;;;;;;;;10.33;10.33;;;;;;;;5057237;28;45357;-73
2022/04/01 11:35:00;;;;;;;;;6.00;5.00;;;;;;;;5057344;28;45378;-72
2022/04/01 11:37:26;;;;;;;;;6.33;5.67;;;;;;;;5056636;28;45478;-73
2022/04/01 11:39:51;;;;;;;;;3.00;2.33;;;;;;;;5036765;28;45561;-72
2022/04/01 11:42:17;;;;;;;;;5.00;3.75;;;;;;;;5035600;28;45300;-72
2022/04/01 11:44:55;;;;;;;;;1.50;1.00;;;;;;;;5049825;28;45442;-72
2022/04/01 11:47:34;;;;;;;;;1.00;1.00;;;;;;;;5055538;28;45554;-72
2022/04/01 11:50:10;;;;;;;;;0.50;0.00;;;;;;;;5052492;28;46280;-72
2022/04/01 11:52:38;;;;;;;;;2.00;1.00;;;;;;;;5035484;28;45333;-74
2022/04/01 11:55:10;;;;;;;;;1.00;1.00;;;;;;;;5049643;28;45368;-72
2022/04/01 11:57:36;;;;;;;;;1.00;0.00;;;;;;;;5059493;28;45523;-72
2022/04/01 12:00:01;;;;;;;;;0.25;0.25;;;;;;;;5060381;28;45625;-72
2022/04/01 12:02:28;;;;;;;;;1.25;1.25;;;;;;;;5060519;28;45322;-72
2022/04/01 12:04:53;;;;;;;;;5.50;4.00;;;;;;;;5059192;28;45181;-72
2022/04/01 12:10:17;;;;;;;;;47.50;41.25;;;;;;;;5049363;28;45321;-72
2022/04/01 12:12:51;;;;;;;;;8.75;8.25;;;;;;;;5060395;28;45548;-72
2022/04/01 12:15:17;;;;;;;;;9.75;9.50;;;;;;;;5058417;28;45342;-72
2022/04/01 12:17:49;;;;;;;;;4.25;3.25;;;;;;;;5058981;28;45432;-73
2022/04/01 12:20:14;;;;;;;;;31.00;26.75;;;;;;;;5058433;28;46556;-72
2022/04/01 12:22:40;;;;;;;;;3.00;2.50;;;;;;;;5059883;28;45433;-74
2022/04/01 12:25:05;;;;;;;;;7.00;7.00;;;;;;;;5060488;28;45301;-73
2022/04/01 12:27:31;;;;;;;;;11.50;11.00;;;;;;;;5060148;28;45424;-72
2022/04/01 12:29:58;;;;;;;;;11.50;11.00;;;;;;;;5059315;28;45470;-72
2022/04/01 12:32:24;;;;;;;;;5.00;4.00;;;;;;;;5058502;28;45318;-73
2022/04/01 12:34:51;;;;;;;;;2.00;2.00;;;;;;;;5058637;28;45319;-73
2022/04/01 12:37:17;;;;;;;;;2.67;1.67;;;;;;;;5058440;28;45560;-72
2022/04/01 12:39:45;;;;;;;;;0.00;0.00;;;;;;;;5059602;28;45989;-73
2022/04/01 12:42:12;;;;;;;;;1.00;0.00;;;;;;;;5059968;28;45438;-72
2022/04/01 12:44:41;;;;;;;;;0.67;0.67;;;;;;;;5058951;28;45398;-73
2022/04/01 12:47:08;;;;;;;;;6.00;5.00;;;;;;;;5060293;28;45380;-72
2022/04/01 12:49:34;;;;;;;;;4.50;2.50;;;;;;;;5058919;28;45439;-73
2022/04/01 12:52:01;;;;;;;;;4.25;4.25;;;;;;;;5059739;28;45418;-75
2022/04/01 12:54:28;;;;;;;;;10.75;10.25;;;;;;;;5059114;28;45568;-73
2022/04/01 12:56:54;;;;;;;;;3.00;2.75;;;;;;;;5058296;28;45492;-72
2022/04/01 12:59:24;;;;;;;;;7.00;7.00;;;;;;;;5059481;28;45323;-72
2022/04/01 13:02:00;;;;;;;;;1.00;1.00;;;;;;;;5059475;28;45438;-72
2022/04/01 13:04:25;;;;;;;;;2.75;2.75;;;;;;;;5059668;28;45327;-72
2022/04/01 13:07:06;;;;;;;;;1.00;0.00;;;;;;;;5062827;28;45345;-72
2022/04/01 13:09:32;;;;;;;;;1.25;1.00;;;;;;;;5061890;28;45263;-72
2022/04/01 13:12:04;;;;;;;;;1.00;1.00;;;;;;;;5058165;28;45289;-72
2022/04/01 13:14:30;;;;;;;;;2.00;2.00;;;;;;;;5059706;28;45431;-71
2022/04/01 13:16:56;;;;;;;;;8.75;6.75;;;;;;;;5057512;28;45288;-71
2022/04/01 13:19:28;;;;;;;;;27.75;26.50;;;;;;;;5056924;28;45430;-72
2022/04/01 13:22:01;;;;;;;;;11.50;9.00;;;;;;;;5058368;28;45498;-72
2022/04/01 13:24:33;;;;;;;;;5.50;4.25;;;;;;;;5058899;28;45426;-72
2022/04/01 13:26:59;;;;;;;;;2.00;1.75;;;;;;;;5059061;28;45575;-74
2022/04/01 13:29:25;;;;;;;;;3.00;2.25;;;;;;;;5057377;28;47766;-74
2022/04/01 13:31:51;;;;;;;;;1.50;1.50;;;;;;;;5057715;28;45513;-71
2022/04/01 13:34:16;;;;;;;;;2.50;2.50;;;;;;;;5059185;28;45481;-71
2022/04/01 13:36:42;;;;;;;;;2.25;2.25;;;;;;;;5058743;28;45288;-71
2022/04/01 13:39:08;;;;;;;;;16.50;15.00;;;;;;;;5058700;28;45477;-71
2022/04/01 13:41:33;;;;;;;;;21.25;20.25;;;;;;;;5058141;28;45455;-74
2022/04/01 13:43:59;;;;;;;;;2.50;2.50;;;;;;;;5058862;28;45413;-74
2022/04/01 13:46:24;;;;;;;;;2.00;2.00;;;;;;;;5059115;28;45386;-72
2022/04/01 13:48:50;;;;;;;;;3.00;2.00;;;;;;;;5057178;28;48245;-73
2022/04/01 13:51:16;;;;;;;;;6.00;6.00;;;;;;;;5052066;28;45433;-73
2022/04/01 13:53:41;;;;;;;;;2.00;2.00;;;;;;;;5049713;28;46703;-74
2022/04/01 13:56:08;;;;;;;;;4.00;3.50;;;;;;;;5058017;28;45375;-72
2022/04/01 13:58:34;;;;;;;;;9.00;9.00;;;;;;;;5057443;28;47790;-71
2022/04/01 14:00:59;;;;;;;;;7.50;7.00;;;;;;;;5055066;28;45520;-74
2022/04/01 14:03:24;;;;;;;;;7.00;6.25;;;;;;;;5037911;28;45439;-73
2022/04/01 14:05:50;;;;;;;;;11.50;9.50;;;;;;;;5037050;28;45421;-73
2022/04/01 14:08:15;;;;;;;;;6.75;5.00;;;;;;;;5036102;28;46570;-72
2022/04/01 14:10:41;;;;;;;;;16.50;13.75;;;;;;;;5039017;28;45460;-72
2022/04/01 14:13:07;;;;;;;;;6.25;5.50;;;;;;;;5041374;28;45472;-72
2022/04/01 14:15:34;;;;;;;;;41.00;32.50;;;;;;;;5037063;28;45513;-73
2022/04/01 14:17:59;;;;;;;;;7.00;6.25;;;;;;;;5037305;28;46102;-72
2022/04/01 14:20:25;;;;;;;;;5.00;3.75;;;;;;;;5037597;28;45248;-72
2022/04/01 14:22:50;;;;;;;;;6.75;5.00;;;;;;;;5039855;28;45434;-72
2022/04/01 14:25:16;;;;;;;;;4.00;4.00;;;;;;;;5041205;28;45676;-72
2022/04/01 14:27:41;;;;;;;;;3.00;2.00;;;;;;;;5042208;28;45465;-72
2022/04/01 14:30:18;;;;;;;;;4.00;3.00;;;;;;;;5039967;28;45350;-73
2022/04/01 14:32:44;;;;;;;;;2.00;2.00;;;;;;;;5047183;28;45338;-72
2022/04/01 14:35:09;;;;;;;;;1.00;1.00;;;;;;;;5041463;28;45523;-73
2022/04/01 14:37:35;;;;;;;;;2.00;2.00;;;;;;;;5039610;28;46328;-72
2022/04/01 14:40:00;;;;;;;;;1.00;1.00;;;;;;;;5038698;28;45452;-72
2022/04/01 14:42:27;;;;;;;;;2.00;2.00;;;;;;;;5040100;28;45581;-73
2022/04/01 14:44:52;;;;;;;;;3.00;2.00;;;;;;;;5037944;28;45310;-73
2022/04/01 14:47:18;;;;;;;;;6.75;6.75;;;;;;;;5039101;28;46032;-73
2022/04/01 14:49:43;;;;;;;;;2.00;2.00;;;;;;;;5039649;28;45592;-73
2022/04/01 14:52:08;;;;;;;;;2.00;2.00;;;;;;;;5039417;28;45404;-72
2022/04/01 14:54:35;;;;;;;;;29.25;24.25;;;;;;;;5036404;28;45459;-72
2022/04/01 14:57:00;;;;;;;;;3.25;3.00;;;;;;;;5041511;28;46516;-73